createdAt,value
2022-12-18T00:02:15.927Z,100085.31
2022-12-18T00:04:47.539Z,100083.50
2022-12-18T00:07:19.165Z,100086.02
2022-12-18T00:09:50.726Z,100083.77
2022-12-18T00:12:22.311Z,100084.77
2022-12-18T00:14:53.921Z,100090.60
2022-12-18T00:17:25.481Z,100099.03
2022-12-18T00:19:57.081Z,100100.65
2022-12-18T00:22:28.728Z,100105.67
2022-12-18T00:25:00.317Z,100104.67
2022-12-18T00:27:31.950Z,100102.15
2022-12-18T00:30:03.544Z,100103.54
2022-12-18T00:32:36.316Z,100107.98
2022-12-18T00:35:09.291Z,100103.28
2022-12-18T00:37:40.895Z,100106.61
2022-12-18T00:40:14.417Z,100112.05
2022-12-18T00:42:58.412Z,100113.16
2022-12-18T00:45:32.730Z,100121.96
2022-12-18T00:48:04.473Z,100123.55
2022-12-18T00:50:36.291Z,100127.09
2022-12-18T00:53:08.358Z,100133.71
2022-12-18T00:55:41.026Z,100137.05
2022-12-18T00:58:13.643Z,100135.98
2022-12-18T01:00:46.048Z,100144.11
2022-12-18T01:03:17.942Z,100145.10
2022-12-18T01:05:49.697Z,100146.12
2022-12-18T01:08:21.285Z,100151.64
2022-12-18T01:10:53.054Z,100158.05
2022-12-18T01:13:24.679Z,100161.36
2022-12-18T01:15:56.381Z,100160.46
2022-12-18T01:18:28.016Z,100163.67
2022-12-18T01:20:59.658Z,100160.13
2022-12-18T01:23:31.253Z,100160.98
2022-12-18T01:26:08.325Z,100164.90
2022-12-18T01:28:41.086Z,100165.91
2022-12-18T01:31:21.849Z,100167.33
2022-12-18T01:33:54.488Z,100169.15
2022-12-18T01:36:28.134Z,100166.28
2022-12-18T01:39:01.112Z,100165.88
2022-12-18T01:41:49.102Z,100167.14
2022-12-18T01:45:03.823Z,100165.48
2022-12-18T01:47:40.122Z,100173.79
2022-12-18T01:50:15.627Z,100175.46
2022-12-18T01:52:49.957Z,100177.52
2022-12-18T01:55:24.799Z,100185.53
2022-12-18T01:57:58.609Z,100186.02
2022-12-18T02:00:30.731Z,100183.78
2022-12-18T02:03:02.798Z,100189.86
2022-12-18T02:05:46.249Z,100197.14
2022-12-18T02:08:22.843Z,100196.21
2022-12-18T02:11:07.324Z,100202.52
2022-12-18T02:13:48.229Z,100204.48
2022-12-18T02:16:50.595Z,100212.39
2022-12-18T02:19:35.311Z,100223.71
2022-12-18T02:22:16.047Z,100226.20
2022-12-18T02:25:10.055Z,100230.58
2022-12-18T02:27:42.577Z,100237.46
2022-12-18T02:30:14.525Z,100245.52
2022-12-18T02:32:51.833Z,100245.32
2022-12-18T02:35:26.669Z,100243.04
2022-12-18T02:38:02.369Z,100244.38
2022-12-18T02:40:34.163Z,100242.63
2022-12-18T02:43:11.237Z,100241.05
2022-12-18T02:45:52.699Z,100247.26
2022-12-18T02:48:28.030Z,100251.30
2022-12-18T02:51:06.259Z,100258.83
2022-12-18T02:53:46.155Z,100260.80
2022-12-18T02:56:24.713Z,100264.06
2022-12-18T02:59:24.997Z,100264.55
2022-12-18T03:02:01.235Z,100264.48
2022-12-18T03:04:39.259Z,100272.95
2022-12-18T03:07:21.276Z,100278.41
2022-12-18T03:09:58.123Z,100281.20
2022-12-18T03:12:34.008Z,100290.89
2022-12-18T03:15:17.625Z,100290.27
2022-12-18T03:17:54.616Z,100289.63
2022-12-18T03:20:54.018Z,100294.16
2022-12-18T03:23:27.966Z,100294.08
2022-12-18T03:26:07.421Z,100290.55
2022-12-18T03:28:44.095Z,100289.23
2022-12-18T03:31:27.013Z,100290.77
2022-12-18T03:34:03.705Z,100292.56
2022-12-18T03:36:35.499Z,100291.67
2022-12-18T03:39:08.128Z,100293.40
2022-12-18T03:42:25.914Z,100296.41
2022-12-18T03:45:17.028Z,100303.78
2022-12-18T03:48:00.720Z,100304.04
2022-12-18T03:50:39.981Z,100308.49
2022-12-18T03:53:22.528Z,100306.52
2022-12-18T03:55:55.779Z,100309.20
2022-12-18T03:58:29.889Z,100302.71
2022-12-18T04:01:05.924Z,100316.85
2022-12-18T04:03:38.616Z,100319.83
2022-12-18T04:06:12.135Z,100323.84
2022-12-18T04:08:44.779Z,100327.76
2022-12-18T04:11:18.657Z,100330.42
2022-12-18T04:13:50.348Z,100330.52
2022-12-18T04:16:23.816Z,100332.80
2022-12-18T04:18:57.005Z,100330.20
2022-12-18T04:21:28.764Z,100332.90
2022-12-18T04:24:00.398Z,100330.98
2022-12-18T04:26:32.114Z,100332.79
2022-12-18T04:29:03.871Z,100337.52
2022-12-18T04:31:35.662Z,100342.41
2022-12-18T04:34:07.565Z,100341.92
2022-12-18T04:36:39.179Z,100351.63
2022-12-18T04:39:11.271Z,100352.30
2022-12-18T04:41:43.076Z,100353.49
2022-12-18T04:44:23.425Z,100355.14
2022-12-18T04:47:16.224Z,100360.53
2022-12-18T04:49:53.021Z,100367.85
2022-12-18T04:52:25.886Z,100367.84
2022-12-18T04:54:57.508Z,100371.70
2022-12-18T04:57:29.280Z,100380.73
2022-12-18T05:00:00.995Z,100386.83
2022-12-18T05:02:35.639Z,100391.61
2022-12-18T05:05:08.834Z,100394.38
2022-12-18T05:08:01.250Z,100384.17
2022-12-18T05:10:37.988Z,100391.80
2022-12-18T05:13:12.819Z,100392.60
2022-12-18T05:15:44.603Z,100393.75
2022-12-18T05:18:16.432Z,100394.16
2022-12-18T05:20:50.986Z,100396.83
2022-12-18T05:23:26.218Z,100397.55
2022-12-18T05:25:59.429Z,100405.65
2022-12-18T05:28:33.016Z,100412.04
2022-12-18T05:31:25.580Z,100413.98
2022-12-18T05:33:57.325Z,100414.39
2022-12-18T05:36:51.686Z,100417.39
2022-12-18T05:39:54.850Z,100410.95
2022-12-18T05:42:18.759Z,100419.59
2022-12-18T05:44:50.345Z,100430.19
2022-12-18T05:47:22.179Z,100429.38
2022-12-18T05:49:53.797Z,100428.41
2022-12-18T05:52:30.492Z,100434.62
2022-12-18T05:55:06.450Z,100432.88
2022-12-18T05:57:38.142Z,100435.64
2022-12-18T06:00:12.384Z,100436.34
2022-12-18T06:02:44.030Z,100439.66
2022-12-18T06:05:15.837Z,100441.73
2022-12-18T06:07:47.615Z,100442.70
2022-12-18T06:10:19.386Z,100441.89
2022-12-18T06:12:51.265Z,100446.16
2022-12-18T06:15:23.060Z,100441.30
2022-12-18T06:17:57.337Z,100447.64
2022-12-18T06:20:33.677Z,100451.16
2022-12-18T06:23:05.823Z,100452.93
2022-12-18T06:25:39.061Z,100451.50
2022-12-18T06:28:11.004Z,100457.58
2022-12-18T06:30:45.128Z,100459.45
2022-12-18T06:33:19.739Z,100463.94
2022-12-18T06:35:52.203Z,100465.19
2022-12-18T06:38:26.011Z,100473.09
2022-12-18T06:41:00.688Z,100473.83
2022-12-18T06:43:58.167Z,100478.52
2022-12-18T06:46:45.311Z,100484.17
2022-12-18T06:49:16.996Z,100485.52
2022-12-18T06:51:54.190Z,100485.77
2022-12-18T06:55:14.132Z,100495.94
2022-12-18T06:57:34.404Z,100497.96
2022-12-18T07:00:08.104Z,100506.82
2022-12-18T07:02:39.999Z,100510.52
2022-12-18T07:05:12.375Z,100510.88
2022-12-18T07:07:44.024Z,100512.66
2022-12-18T07:10:15.674Z,100516.30
2022-12-18T07:12:47.499Z,100518.17
2022-12-18T07:15:21.746Z,100520.70
2022-12-18T07:17:56.199Z,100526.88
2022-12-18T07:20:50.333Z,100530.44
2022-12-18T07:23:45.195Z,100534.23
2022-12-18T07:26:31.507Z,100539.61
2022-12-18T07:29:04.270Z,100544.67
2022-12-18T07:31:36.009Z,100549.55
2022-12-18T07:34:30.702Z,100548.70
2022-12-18T07:36:59.982Z,100548.80
2022-12-18T07:39:34.683Z,100553.45
2022-12-18T07:42:32.384Z,100555.78
2022-12-18T07:45:04.819Z,100560.13
2022-12-18T07:47:37.960Z,100562.48
2022-12-18T07:50:10.707Z,100558.06
2022-12-18T07:52:42.495Z,100562.86
2022-12-18T07:55:14.221Z,100563.38
2022-12-18T07:57:51.283Z,100564.41
2022-12-18T08:00:24.406Z,100562.70
2022-12-18T08:02:56.130Z,100568.34
2022-12-18T08:05:28.245Z,100571.09
2022-12-18T08:08:00.242Z,100565.83
2022-12-18T08:10:31.831Z,100568.10
2022-12-18T08:13:05.289Z,100567.16
2022-12-18T08:15:37.047Z,100564.95
2022-12-18T08:18:13.911Z,100563.89
2022-12-18T08:20:46.080Z,100570.08
2022-12-18T08:23:17.930Z,100574.20
2022-12-18T08:25:49.786Z,100573.15
2022-12-18T08:28:21.623Z,100574.46
2022-12-18T08:30:56.365Z,100573.89
2022-12-18T08:33:28.346Z,100579.54
2022-12-18T08:35:59.976Z,100577.64
2022-12-18T08:38:32.146Z,100577.05
2022-12-18T08:41:05.477Z,100583.05
2022-12-18T08:43:52.982Z,100590.38
2022-12-18T08:46:26.711Z,100591.66
2022-12-18T08:48:58.365Z,100598.09
2022-12-18T08:51:30.068Z,100597.23
2022-12-18T08:54:01.716Z,100606.95
2022-12-18T08:56:33.969Z,100609.44
2022-12-18T08:59:06.223Z,100611.86
2022-12-18T09:01:37.982Z,100614.36
2022-12-18T09:04:09.748Z,100617.05
2022-12-18T09:06:41.679Z,100618.02
2022-12-18T09:09:14.141Z,100617.11
2022-12-18T09:11:45.829Z,100622.80
2022-12-18T09:14:17.419Z,100630.94
2022-12-18T09:16:49.033Z,100632.84
2022-12-18T09:19:20.673Z,100638.37
2022-12-18T09:21:52.315Z,100636.46
2022-12-18T09:24:31.349Z,100636.56
2022-12-18T09:27:03.004Z,100637.92
2022-12-18T09:29:34.915Z,100634.84
2022-12-18T09:32:07.079Z,100636.06
2022-12-18T09:34:38.874Z,100639.88
2022-12-18T09:37:10.683Z,100639.17
2022-12-18T09:39:43.024Z,100635.86
2022-12-18T09:42:22.909Z,100642.04
2022-12-18T09:44:56.285Z,100644.73
2022-12-18T09:47:29.710Z,100646.19
2022-12-18T09:50:04.488Z,100643.86
2022-12-18T09:52:40.054Z,100648.08
2022-12-18T09:55:18.555Z,100646.01
2022-12-18T09:57:54.443Z,100646.20
2022-12-18T10:00:27.496Z,100650.30
2022-12-18T10:03:05.534Z,100648.77
2022-12-18T10:05:44.674Z,100643.74
2022-12-18T10:08:24.668Z,100640.20
2022-12-18T10:11:00.105Z,100638.92
2022-12-18T10:13:36.745Z,100640.52
2022-12-18T10:16:16.344Z,100641.16
2022-12-18T10:19:03.506Z,100636.08
2022-12-18T10:21:40.785Z,100639.31
2022-12-18T10:24:30.959Z,100639.42
2022-12-18T10:27:14.669Z,100640.95
2022-12-18T10:29:46.244Z,100633.56
2022-12-18T10:32:23.124Z,100628.58
2022-12-18T10:35:00.094Z,100623.38
2022-12-18T10:37:33.328Z,100618.22
2022-12-18T10:40:21.503Z,100614.48
2022-12-18T10:43:14.722Z,100611.01
2022-12-18T10:46:02.459Z,100607.79
2022-12-18T10:48:35.833Z,100604.52
2022-12-18T10:51:12.157Z,100602.74
2022-12-18T10:53:54.043Z,100608.23
2022-12-18T10:56:27.201Z,100606.44
2022-12-18T10:59:04.954Z,100605.55
2022-12-18T11:01:55.888Z,100601.72
2022-12-18T11:04:30.233Z,100594.64
2022-12-18T11:07:04.916Z,100593.23
2022-12-18T11:09:38.139Z,100593.02
2022-12-18T11:12:19.998Z,100589.13
2022-12-18T11:14:54.118Z,100585.92
2022-12-18T11:17:31.159Z,100583.80
2022-12-18T11:20:04.621Z,100581.36
2022-12-18T11:22:39.185Z,100584.83
2022-12-18T11:25:35.676Z,100583.19
2022-12-18T11:28:26.535Z,100579.14
2022-12-18T11:31:18.681Z,100579.86
2022-12-18T11:34:27.550Z,100587.30
2022-12-18T11:36:52.041Z,100593.09
2022-12-18T11:39:33.508Z,100595.33
2022-12-18T11:42:12.513Z,100602.66
2022-12-18T11:44:50.688Z,100609.61
2022-12-18T11:47:30.677Z,100603.30
2022-12-18T11:50:08.086Z,100601.09
2022-12-18T11:52:42.735Z,100599.92
2022-12-18T11:55:18.522Z,100598.04
2022-12-18T11:57:59.820Z,100603.50
2022-12-18T12:00:31.621Z,100609.60
2022-12-18T12:03:19.579Z,100608.10
2022-12-18T12:06:07.071Z,100609.96
2022-12-18T12:08:53.313Z,100608.98
2022-12-18T12:11:31.693Z,100612.66
2022-12-18T12:14:19.366Z,100618.89
2022-12-18T12:16:59.172Z,100617.53
2022-12-18T12:19:45.576Z,100619.56
2022-12-18T12:22:26.532Z,100626.08
2022-12-18T12:25:23.060Z,100621.83
2022-12-18T12:28:03.291Z,100620.75
2022-12-18T12:30:43.563Z,100619.20
2022-12-18T12:33:29.846Z,100623.52
2022-12-18T12:36:11.832Z,100629.51
2022-12-18T12:38:52.378Z,100629.90
2022-12-18T12:41:45.490Z,100630.93
2022-12-18T12:44:24.224Z,100631.25
2022-12-18T12:47:00.408Z,100629.33
2022-12-18T12:49:40.557Z,100631.13
2022-12-18T12:52:17.828Z,100631.23
2022-12-18T12:54:51.745Z,100622.58
2022-12-18T12:57:32.652Z,100622.11
2022-12-18T13:00:08.980Z,100632.67
2022-12-18T13:02:47.224Z,100633.48
2022-12-18T13:05:26.288Z,100637.51
2022-12-18T13:08:21.582Z,100634.38
2022-12-18T13:11:14.737Z,100639.45
2022-12-18T13:13:56.997Z,100634.05
2022-12-18T13:16:30.177Z,100645.60
2022-12-18T13:19:02.114Z,100644.75
2022-12-18T13:21:35.313Z,100649.16
2022-12-18T13:24:24.482Z,100654.86
2022-12-18T13:26:56.721Z,100657.50
2022-12-18T13:29:48.139Z,100652.17
2022-12-18T13:32:25.183Z,100652.73
2022-12-18T13:35:32.227Z,100655.58
2022-12-18T13:38:24.341Z,100660.61
2022-12-18T13:41:01.669Z,100659.77
2022-12-18T13:43:38.338Z,100660.11
2022-12-18T13:46:24.690Z,100659.54
2022-12-18T13:49:00.297Z,100664.69
2022-12-18T13:51:34.079Z,100665.42
2022-12-18T13:54:16.224Z,100663.55
2022-12-18T13:56:49.810Z,100669.92
2022-12-18T13:59:25.049Z,100665.87
2022-12-18T14:01:59.843Z,100667.02
2022-12-18T14:04:36.530Z,100660.11
2022-12-18T14:07:13.622Z,100666.29
2022-12-18T14:09:49.914Z,100663.17
2022-12-18T14:12:43.374Z,100662.20
2022-12-18T14:15:31.730Z,100665.77
2022-12-18T14:18:11.793Z,100663.16
2022-12-18T14:20:52.128Z,100662.96
2022-12-18T14:23:36.257Z,100658.18
2022-12-18T14:26:30.070Z,100657.37
2022-12-18T14:29:03.072Z,100663.11
2022-12-18T14:31:34.832Z,100663.80
2022-12-18T14:34:06.443Z,100662.27
2022-12-18T14:36:40.972Z,100658.21
2022-12-18T14:39:35.553Z,100664.03
2022-12-18T14:42:07.559Z,100664.67
2022-12-18T14:44:50.736Z,100647.64
2022-12-18T14:47:29.365Z,100663.77
2022-12-18T14:50:01.877Z,100675.80
2022-12-18T14:52:35.288Z,100680.09
2022-12-18T14:55:05.659Z,100687.18
2022-12-18T14:57:43.200Z,100687.11
2022-12-18T15:00:21.189Z,100687.05
2022-12-18T15:02:55.455Z,100687.55
2022-12-18T15:05:31.234Z,100689.92
2022-12-18T15:08:04.139Z,100688.86
2022-12-18T15:10:36.600Z,100695.98
2022-12-18T15:13:22.540Z,100698.12
2022-12-18T15:15:55.562Z,100698.35
2022-12-18T15:18:32.217Z,100701.08
2022-12-18T15:21:12.312Z,100701.30
2022-12-18T15:23:53.349Z,100706.02
2022-12-18T15:26:25.612Z,100710.20
2022-12-18T15:28:59.525Z,100712.98
2022-12-18T15:31:35.870Z,100711.50
2022-12-18T15:34:26.232Z,100715.45
2022-12-18T15:36:58.075Z,100714.27
2022-12-18T15:39:30.368Z,100714.73
2022-12-18T15:42:25.403Z,100718.30
2022-12-18T15:44:57.023Z,100723.98
2022-12-18T15:47:29.292Z,100718.08
2022-12-18T15:50:00.877Z,100724.80
2022-12-18T15:52:33.809Z,100726.49
2022-12-18T15:55:23.268Z,100722.79
2022-12-18T15:57:54.973Z,100725.06
2022-12-18T16:00:26.581Z,100726.41
2022-12-18T16:02:58.355Z,100731.23
2022-12-18T16:05:31.844Z,100730.56
2022-12-18T16:08:01.932Z,100730.11
2022-12-18T16:10:33.736Z,100734.20
2022-12-18T16:13:05.390Z,100744.61
2022-12-18T16:15:37.345Z,100739.36
2022-12-18T16:18:09.158Z,100739.73
2022-12-18T16:20:41.763Z,100748.11
2022-12-18T16:23:13.348Z,100743.35
2022-12-18T16:25:45.059Z,100749.20
2022-12-18T16:28:16.740Z,100747.23
2022-12-18T16:30:49.002Z,100748.70
2022-12-18T16:33:20.713Z,100753.08
2022-12-18T16:35:56.181Z,100757.44
2022-12-18T16:38:28.019Z,100748.78
2022-12-18T16:41:17.361Z,100754.21
2022-12-18T16:43:54.671Z,100752.58
2022-12-18T16:46:26.687Z,100753.45
2022-12-18T16:49:00.740Z,100751.79
2022-12-18T16:51:36.301Z,100747.73
2022-12-18T16:54:10.998Z,100747.98
2022-12-18T16:56:45.300Z,100748.52
2022-12-18T16:59:17.086Z,100746.17
2022-12-18T17:01:49.810Z,100744.40
2022-12-18T17:04:21.590Z,100731.86
2022-12-18T17:06:53.979Z,100726.27
2022-12-18T17:09:26.273Z,100725.48
2022-12-18T17:11:58.054Z,100722.30
2022-12-18T17:14:29.854Z,100715.85
2022-12-18T17:19:53.791Z,100715.46
2022-12-18T17:22:25.420Z,100707.35
2022-12-18T17:24:57.158Z,100695.24
2022-12-18T17:27:28.817Z,100692.85
2022-12-18T17:30:00.513Z,100694.34
2022-12-18T17:32:32.164Z,100690.77
2022-12-18T17:35:07.137Z,100694.56
2022-12-18T17:37:39.179Z,100701.35
2022-12-18T17:40:12.839Z,100703.91
2022-12-18T17:42:44.509Z,100699.73
2022-12-18T17:45:16.226Z,100704.52
2022-12-18T17:47:47.845Z,100718.41
2022-12-18T17:50:19.836Z,100730.07
2022-12-18T17:52:51.603Z,100740.30
2022-12-18T17:55:23.297Z,100738.73
2022-12-18T17:57:55.736Z,100736.58
2022-12-18T18:00:27.505Z,100735.23
2022-12-18T18:02:59.589Z,100737.23
2022-12-18T18:05:32.050Z,100746.69
2022-12-18T18:08:07.511Z,100740.54
2022-12-18T18:10:40.441Z,100739.41
2022-12-18T18:13:46.664Z,100738.33
2022-12-18T18:16:19.028Z,100740.13
2022-12-18T18:18:50.687Z,100730.14
2022-12-18T18:21:22.301Z,100731.98
2022-12-18T18:23:54.548Z,100728.70
2022-12-18T18:26:29.152Z,100726.23
2022-12-18T18:29:03.030Z,100727.23
2022-12-18T18:31:41.334Z,100735.66
2022-12-18T18:34:17.147Z,100735.44
2022-12-18T18:36:48.889Z,100738.94
2022-12-18T18:39:20.985Z,100742.92
2022-12-18T18:41:52.802Z,100747.09
2022-12-18T18:44:26.284Z,100748.26
2022-12-18T18:46:59.877Z,100753.86
2022-12-18T18:49:33.085Z,100757.48
2022-12-18T18:52:05.208Z,100755.20
2022-12-18T18:54:36.828Z,100753.33
2022-12-18T18:57:30.109Z,100754.91
2022-12-18T19:00:01.991Z,100760.14
2022-12-18T19:02:33.848Z,100764.27
2022-12-18T19:05:06.237Z,100769.45
2022-12-18T19:07:37.910Z,100772.29
2022-12-18T19:10:11.273Z,100782.61
2022-12-18T19:13:00.499Z,100783.56
2022-12-18T19:15:32.109Z,100778.95
2022-12-18T19:18:03.921Z,100780.70
2022-12-18T19:20:35.952Z,100785.15
2022-12-18T19:23:07.732Z,100793.22
2022-12-18T19:25:42.095Z,100794.05
2022-12-18T19:28:21.293Z,100782.29
2022-12-18T19:30:58.823Z,100770.89
2022-12-18T19:33:48.198Z,100767.14
2022-12-18T19:36:23.258Z,100778.92
2022-12-18T19:38:56.670Z,100789.98
2022-12-18T19:41:31.317Z,100793.59
2022-12-18T19:44:07.814Z,100793.91
2022-12-18T19:46:40.699Z,100788.46
2022-12-18T19:49:38.478Z,100791.95
2022-12-18T19:52:05.493Z,100792.94
2022-12-18T19:54:37.264Z,100792.72
2022-12-18T19:57:11.464Z,100786.77
2022-12-18T19:59:43.168Z,100784.83
2022-12-18T20:02:16.689Z,100775.29
2022-12-18T20:04:48.908Z,100776.63
2022-12-18T20:07:20.580Z,100774.35
2022-12-18T20:09:59.535Z,100776.31
2022-12-18T20:12:34.177Z,100775.34
2022-12-18T20:15:06.664Z,100779.41
2022-12-18T20:17:39.164Z,100778.81
2022-12-18T20:20:12.412Z,100766.20
2022-12-18T20:22:45.092Z,100767.39
2022-12-18T20:25:19.277Z,100766.32
2022-12-18T20:27:50.971Z,100764.52
2022-12-18T20:30:22.619Z,100765.15
2022-12-18T20:32:54.303Z,100765.14
2022-12-18T20:35:28.087Z,100760.73
2022-12-18T20:38:00.753Z,100763.31
2022-12-18T20:40:32.774Z,100754.12
2022-12-18T20:43:04.501Z,100750.95
2022-12-18T20:45:37.195Z,100747.84
2022-12-18T20:48:11.492Z,100747.19
2022-12-18T20:50:43.343Z,100739.56
2022-12-18T20:53:14.997Z,100735.38
2022-12-18T20:55:46.555Z,100733.45
2022-12-18T20:58:18.683Z,100729.07
2022-12-18T21:00:50.475Z,100729.67
2022-12-18T21:03:22.218Z,100729.97
2022-12-18T21:05:53.869Z,100726.91
2022-12-18T21:08:25.431Z,100725.78
2022-12-18T21:10:57.048Z,100726.02
2022-12-18T21:13:28.989Z,100725.69
2022-12-18T21:16:02.586Z,100727.70
2022-12-18T21:18:35.011Z,100727.92
2022-12-18T21:21:06.917Z,100723.48
2022-12-18T21:23:38.597Z,100730.63
2022-12-18T21:26:22.202Z,100734.84
2022-12-18T21:28:58.094Z,100738.30
2022-12-18T21:31:32.204Z,100732.66
2022-12-18T21:34:04.632Z,100730.73
2022-12-18T21:36:36.923Z,100726.77
2022-12-18T21:39:08.559Z,100723.58
2022-12-18T21:41:57.869Z,100716.27
2022-12-18T21:44:29.598Z,100721.61
2022-12-18T21:47:11.996Z,100726.96
2022-12-18T21:49:53.588Z,100728.30
2022-12-18T21:52:32.007Z,100731.81
2022-12-18T21:55:09.600Z,100734.33
2022-12-18T21:57:41.982Z,100731.40
2022-12-18T22:00:18.388Z,100729.70
2022-12-18T22:03:04.909Z,100730.14
2022-12-18T22:05:43.204Z,100731.40
2022-12-18T22:08:15.062Z,100725.20
2022-12-18T22:10:46.892Z,100728.15
2022-12-18T22:13:18.768Z,100728.14
2022-12-18T22:15:50.617Z,100729.61
2022-12-18T22:18:22.860Z,100730.91
2022-12-18T22:21:04.274Z,100728.14
2022-12-18T22:23:36.125Z,100730.39
2022-12-18T22:26:07.745Z,100731.52
2022-12-18T22:28:56.831Z,100726.65
2022-12-18T22:31:28.535Z,100723.89
2022-12-18T22:34:00.167Z,100723.08
2022-12-18T22:36:38.165Z,100722.44
2022-12-18T22:39:13.773Z,100725.77
2022-12-18T22:41:45.502Z,100727.00
2022-12-18T22:44:18.202Z,100722.11
2022-12-18T22:47:05.409Z,100722.68
2022-12-18T22:49:39.681Z,100719.73
2022-12-18T22:52:12.579Z,100724.85
2022-12-18T22:54:46.297Z,100727.30
2022-12-18T22:57:17.901Z,100723.16
2022-12-18T22:59:49.680Z,100721.20
2022-12-18T23:02:21.586Z,100717.98
2022-12-18T23:04:53.582Z,100722.74
2022-12-18T23:07:25.277Z,100723.56
2022-12-18T23:10:00.989Z,100724.90
2022-12-18T23:12:32.917Z,100720.83
2022-12-18T23:15:08.287Z,100717.79
2022-12-18T23:17:40.008Z,100717.17
2022-12-18T23:20:13.803Z,100715.75
2022-12-18T23:22:45.451Z,100717.23
2022-12-18T23:25:17.262Z,100718.80
2022-12-18T23:27:48.947Z,100720.77
2022-12-18T23:30:20.887Z,100725.35
2022-12-18T23:32:52.566Z,100728.09
2022-12-18T23:35:24.397Z,100720.98
2022-12-18T23:38:00.004Z,100716.48
2022-12-18T23:40:32.714Z,100715.27
2022-12-18T23:43:04.358Z,100711.52
2022-12-18T23:45:39.832Z,100712.38
2022-12-18T23:48:11.408Z,100708.11
2022-12-18T23:50:43.132Z,100705.70
2022-12-18T23:53:15.180Z,100698.66
2022-12-18T23:55:47.338Z,100702.52
2022-12-18T23:58:21.759Z,100707.27
